Time;durP1;ratioP1;P1;durP2;ratioP2;P2;SDS_P1;SDS_P2;PMS_P1;PMS_P2;Temp;Humidity;BMP_temperature;BMP_pressure;BME280_temperature;BME280_humidity;BME280_pressure;Samples;Min_cycle;Max_cycle;Signal;HPM_P1;HPM_P2
2023/06/17 00:00:14;;;;;;;29.80;26.90;;;;;;;14.64;100.00;101451.63;4974917;28;20509;-43
2023/06/17 00:02:43;;;;;;;31.50;28.90;;;;;;;14.64;100.00;101446.25;4975382;28;20505;-46
2023/06/17 00:05:11;;;;;;;32.93;30.03;;;;;;;14.60;100.00;101458.47;4975580;28;20447;-44
2023/06/17 00:07:41;;;;;;;31.17;28.30;;;;;;;14.57;100.00;101456.19;4975397;28;20450;-45
2023/06/17 00:10:10;;;;;;;30.57;27.57;;;;;;;14.57;100.00;101456.19;4974764;28;20488;-43
2023/06/17 00:12:38;;;;;;;32.00;29.00;;;;;;;14.52;100.00;101458.63;4974891;28;20538;-43
2023/06/17 00:15:07;;;;;;;31.00;28.50;;;;;;;14.52;100.00;101465.84;4975259;28;20439;-44
2023/06/17 00:17:35;;;;;;;32.67;29.40;;;;;;;14.47;100.00;101471.00;4975186;28;20861;-46
2023/06/17 00:20:10;;;;;;;30.00;27.23;;;;;;;14.42;100.00;101463.59;4974593;28;21022;-46
2023/06/17 00:22:39;;;;;;;32.50;29.10;;;;;;;14.39;100.00;101462.13;4975006;28;20844;-44
2023/06/17 00:25:07;;;;;;;29.60;27.20;;;;;;;14.37;100.00;101464.19;4974867;28;20438;-44
2023/06/17 00:27:35;;;;;;;33.10;30.03;;;;;;;14.38;100.00;101465.84;4974678;28;20439;-45
2023/06/17 00:30:03;;;;;;;29.77;27.37;;;;;;;14.37;100.00;101466.03;4974319;28;20467;-45
2023/06/17 00:32:31;;;;;;;30.43;27.50;;;;;;;14.35;100.00;101463.56;4974731;28;20529;-46
2023/06/17 00:34:59;;;;;;;31.37;28.83;;;;;;;14.36;100.00;101461.72;4974962;28;20439;-44
2023/06/17 00:37:28;;;;;;;29.90;27.33;;;;;;;14.34;100.00;101458.41;4974706;28;20563;-44
2023/06/17 00:39:56;;;;;;;31.20;28.03;;;;;;;14.33;100.00;101451.41;4974186;28;20467;-44
2023/06/17 00:42:23;;;;;;;29.53;27.03;;;;;;;14.28;100.00;101454.66;4974670;28;20473;-46
2023/06/17 00:44:51;;;;;;;30.00;27.47;;;;;;;14.25;100.00;101455.06;4974770;28;20435;-43
2023/06/17 00:47:19;;;;;;;29.17;26.83;;;;;;;14.25;100.00;101448.84;4974629;28;20936;-44
2023/06/17 00:49:48;;;;;;;30.67;28.27;;;;;;;14.22;100.00;101444.72;4974129;28;20501;-44
2023/06/17 00:52:17;;;;;;;32.53;30.00;;;;;;;14.19;100.00;101446.97;4974331;28;20836;-44
2023/06/17 00:55:08;;;;;;;36.10;32.80;;;;;;;14.18;100.00;101450.72;4974633;28;20435;-42
2023/06/17 00:57:37;;;;;;;35.17;31.97;;;;;;;14.20;100.00;101454.00;4974355;28;21011;-44
2023/06/17 01:00:10;;;;;;;36.07;32.00;;;;;;;14.22;100.00;101449.25;4973848;28;20479;-44
2023/06/17 01:02:45;;;;;;;31.20;28.70;;;;;;;14.20;100.00;101457.53;4974033;28;20427;-49
2023/06/17 01:05:16;;;;;;;39.40;33.97;;;;;;;14.20;100.00;101449.47;4974505;28;20489;-45
2023/06/17 01:07:59;;;;;;;38.10;34.00;;;;;;;14.20;100.00;101452.16;4974052;28;20533;-44
2023/06/17 01:10:35;;;;;;;35.67;32.17;;;;;;;14.20;100.00;101443.28;4974046;28;20447;-45
2023/06/17 01:13:05;;;;;;;41.67;32.90;;;;;;;14.18;100.00;101440.81;4973854;28;20438;-42
2023/06/17 01:15:34;;;;;;;64.07;36.13;;;;;;;14.15;100.00;101451.13;4974358;28;20852;-44
2023/06/17 01:18:04;;;;;;;142.40;40.47;;;;;;;14.14;100.00;101446.78;4973913;28;20837;-44
2023/06/17 01:20:33;;;;;;;63.83;36.90;;;;;;;14.12;100.00;101441.63;4973695;28;20408;-46
2023/06/17 01:23:05;;;;;;;111.07;45.40;;;;;;;14.08;100.00;101443.06;4973667;28;20530;-46
2023/06/17 01:25:35;;;;;;;39.63;33.50;;;;;;;14.03;100.00;101437.47;4973827;28;20434;-44
2023/06/17 01:28:16;;;;;;;40.63;32.10;;;;;;;13.99;100.00;101443.44;4968401;28;20533;-44
2023/06/17 01:30:45;;;;;;;44.47;33.93;;;;;;;13.93;100.00;101447.75;4974150;28;20431;-44
2023/06/17 01:33:14;;;;;;;33.60;30.70;;;;;;;13.93;100.00;101450.44;4973735;28;20435;-43
2023/06/17 01:35:50;;;;;;;38.97;35.27;;;;;;;13.94;100.00;101456.63;4973818;28;20432;-44
2023/06/17 01:38:22;;;;;;;36.87;33.50;;;;;;;13.93;100.00;101450.44;4973388;28;20470;-44
2023/06/17 01:40:57;;;;;;;34.90;31.73;;;;;;;13.93;100.00;101452.28;4973716;28;20454;-42
2023/06/17 01:43:27;;;;;;;44.20;33.80;;;;;;;13.92;100.00;101450.66;4973476;28;20469;-45
2023/06/17 01:45:56;;;;;;;35.63;31.47;;;;;;;13.91;100.00;101443.63;4974183;28;20797;-46
2023/06/17 01:48:24;;;;;;;35.37;31.80;;;;;;;13.90;100.00;101444.63;4973021;28;20479;-42
2023/06/17 01:50:52;;;;;;;41.13;35.33;;;;;;;13.85;100.00;101447.94;4973742;28;20439;-48
2023/06/17 01:53:22;;;;;;;36.23;32.70;;;;;;;13.79;100.00;101441.53;4973269;28;20497;-47
2023/06/17 01:55:51;;;;;;;31.37;28.43;;;;;;;13.77;100.00;101446.25;4973535;28;20442;-46
2023/06/17 01:58:19;;;;;;;39.70;30.60;;;;;;;13.73;100.00;101444.19;4972910;28;20471;-44
2023/06/17 02:00:47;;;;;;;34.43;31.40;;;;;;;13.71;100.00;101441.69;4973257;28;20521;-43
2023/06/17 02:03:15;;;;;;;49.70;33.00;;;;;;;13.65;100.00;101439.78;4973055;28;20438;-44
2023/06/17 02:05:44;;;;;;;35.53;31.47;;;;;;;13.61;100.00;101441.25;4973561;28;20462;-44
2023/06/17 02:08:14;;;;;;;38.77;34.77;;;;;;;13.58;100.00;101436.28;4972773;28;20463;-44
2023/06/17 02:10:42;;;;;;;37.40;33.43;;;;;;;13.54;100.00;101440.38;4973504;28;20423;-45
2023/06/17 02:13:11;;;;;;;62.77;37.00;;;;;;;13.51;100.00;101437.25;4973043;28;20952;-44
2023/06/17 02:15:42;;;;;;;42.93;32.00;;;;;;;13.49;100.00;101442.00;4973124;28;20478;-44
2023/06/17 02:18:12;;;;;;;72.13;34.83;;;;;;;13.46;100.00;101439.72;4972681;28;20471;-43
2023/06/17 02:20:40;;;;;;;53.07;32.80;;;;;;;13.45;100.00;101443.41;4973213;28;20470;-44
2023/06/17 02:23:07;;;;;;;55.37;34.47;;;;;;;13.43;100.00;101440.94;4973007;28;20519;-43
2023/06/17 02:25:36;;;;;;;77.37;34.70;;;;;;;13.45;100.00;101435.38;4973076;28;20529;-44
2023/06/17 02:28:04;;;;;;;56.13;33.03;;;;;;;13.44;100.00;101439.91;4972419;28;20459;-47
2023/06/17 02:30:33;;;;;;;43.00;34.23;;;;;;;13.44;100.00;101433.75;4973186;28;20430;-43
2023/06/17 02:33:01;;;;;;;35.70;31.70;;;;;;;13.46;100.00;101440.53;4974981;28;20497;-42
2023/06/17 02:35:29;;;;;;;46.77;31.53;;;;;;;13.45;100.00;101438.88;4977142;28;20494;-42
2023/06/17 02:37:57;;;;;;;37.43;31.10;;;;;;;13.47;100.00;101442.19;4976583;28;20455;-43
2023/06/17 02:40:25;;;;;;;34.50;31.80;;;;;;;13.46;100.00;101445.06;4977059;28;20475;-42
2023/06/17 02:42:53;;;;;;;32.10;29.60;;;;;;;13.47;100.00;101441.38;4976982;28;20937;-45
2023/06/17 02:45:21;;;;;;;32.57;30.20;;;;;;;13.46;100.00;101435.19;4977019;28;20806;-47
2023/06/17 02:47:51;;;;;;;32.60;30.13;;;;;;;13.49;100.00;101431.28;4976679;28;20474;-42
2023/06/17 02:50:21;;;;;;;32.57;30.03;;;;;;;13.50;100.00;101430.25;4976562;28;20462;-43
2023/06/17 02:52:55;;;;;;;31.20;28.70;;;;;;;13.53;100.00;101430.66;4976814;28;20439;-43
2023/06/17 02:55:25;;;;;;;35.90;30.57;;;;;;;13.57;100.00;101429.25;4976857;28;20528;-43
2023/06/17 02:57:53;;;;;;;48.30;33.70;;;;;;;13.57;100.00;101429.25;4976327;28;20542;-50
2023/06/17 03:00:21;;;;;;;33.63;30.70;;;;;;;13.61;100.00;101425.16;4976629;28;20484;-44
2023/06/17 03:02:51;;;;;;;33.87;31.10;;;;;;;13.65;100.00;101431.75;4976390;28;20442;-44
2023/06/17 03:05:19;;;;;;;36.03;31.50;;;;;;;13.67;100.00;101423.53;4976540;28;20537;-45
2023/06/17 03:07:47;;;;;;;34.50;31.47;;;;;;;13.68;100.00;101422.47;4976667;28;20502;-43
2023/06/17 03:10:17;;;;;;;36.33;30.00;;;;;;;13.69;100.00;101416.94;4995743;28;20488;-48
2023/06/17 03:12:46;;;;;;;33.40;30.80;;;;;;;13.71;100.00;101422.09;4995907;28;20437;-44
2023/06/17 03:15:17;;;;;;;33.73;30.77;;;;;;;13.76;100.00;101425.00;4995893;28;20465;-44
2023/06/17 03:17:45;;;;;;;33.80;30.77;;;;;;;13.81;100.00;101418.00;4995702;28;20426;-47
2023/06/17 03:20:14;;;;;;;35.77;32.97;;;;;;;13.88;100.00;101422.56;4995660;28;20849;-44
2023/06/17 03:22:43;;;;;;;32.33;29.67;;;;;;;13.94;100.00;101425.28;4995508;28;20426;-44
2023/06/17 03:25:13;;;;;;;32.33;29.53;;;;;;;14.04;100.00;101416.81;4995652;28;20444;-44
2023/06/17 03:27:41;;;;;;;34.83;31.57;;;;;;;14.11;100.00;101418.50;4995327;28;21266;-42
2023/06/17 03:30:09;;;;;;;31.33;29.10;;;;;;;14.24;100.00;101426.59;4995024;28;20462;-43
2023/06/17 03:32:37;;;;;;;31.80;29.40;;;;;;;14.34;100.00;101421.66;4995251;28;20777;-48
2023/06/17 03:35:06;;;;;;;29.00;27.00;;;;;;;14.50;100.00;101425.81;4995422;28;20583;-43
2023/06/17 03:37:35;;;;;;;34.70;32.00;;;;;;;14.65;100.00;101417.56;4995469;28;20521;-43
2023/06/17 03:40:03;;;;;;;31.23;28.90;;;;;;;14.79;100.00;101422.72;4994765;28;20481;-43
2023/06/17 03:42:31;;;;;;;32.00;29.70;;;;;;;14.98;100.00;101417.53;4995152;28;20920;-43
2023/06/17 03:44:59;;;;;;;29.90;27.90;;;;;;;15.15;100.00;101421.41;4994888;28;20532;-44
2023/06/17 03:47:28;;;;;;;30.93;28.83;;;;;;;15.36;100.00;101410.41;4995297;28;21013;-44
2023/06/17 03:49:56;;;;;;;32.93;30.53;;;;;;;15.59;100.00;101416.16;4994562;28;20469;-44
2023/06/17 03:52:23;;;;;;;31.20;29.00;;;;;;;15.63;100.00;101421.94;4995061;28;20434;-46
2023/06/17 03:54:53;;;;;;;36.77;33.27;;;;;;;15.60;100.00;101423.19;4995101;28;20461;-43
2023/06/17 03:57:21;;;;;;;33.87;31.10;;;;;;;15.63;100.00;101421.94;4995098;28;20461;-43
2023/06/17 03:59:49;;;;;;;37.77;33.80;;;;;;;15.65;100.00;101420.66;4994343;28;20899;-45
2023/06/17 04:02:17;;;;;;;36.60;32.90;;;;;;;15.64;100.00;101415.53;4994958;28;20529;-45
2023/06/17 04:04:44;;;;;;;36.83;29.07;;;;;;;15.69;100.00;101419.22;4995078;28;20445;-43
2023/06/17 04:07:12;;;;;;;32.23;29.40;;;;;;;15.68;100.00;101424.81;4994901;28;20811;-45
2023/06/17 04:09:40;;;;;;;31.97;29.17;;;;;;;15.72;100.00;101424.16;4994290;28;20883;-47
2023/06/17 04:12:29;;;;;;;29.80;27.67;;;;;;;15.76;100.00;101429.94;4994756;28;20442;-44
2023/06/17 04:14:56;;;;;;;29.40;27.30;;;;;;;15.76;100.00;101424.56;4994865;28;20469;-45
2023/06/17 04:17:24;;;;;;;30.77;28.47;;;;;;;15.79;100.00;101422.28;4994873;28;20525;-44
2023/06/17 04:19:54;;;;;;;32.50;29.70;;;;;;;15.83;100.00;101425.38;4993932;28;21003;-49
2023/06/17 04:22:22;;;;;;;31.03;28.67;;;;;;;15.85;100.00;101431.34;4994504;28;20445;-47
2023/06/17 04:24:55;;;;;;;32.50;29.90;;;;;;;15.92;100.00;101426.75;4994406;28;20442;-45
2023/06/17 04:27:23;;;;;;;33.67;30.60;;;;;;;15.99;100.00;101435.63;4989626;28;20439;-45
2023/06/17 04:29:56;;;;;;;32.07;29.20;;;;;;;16.04;100.00;101428.56;4993859;28;20497;-45
2023/06/17 04:32:24;;;;;;;32.90;30.33;;;;;;;16.15;100.00;101437.81;4994274;28;20469;-48
2023/06/17 04:34:52;;;;;;;32.83;30.33;;;;;;;16.21;100.00;101431.56;4994371;28;20844;-45
2023/06/17 04:37:20;;;;;;;31.27;29.07;;;;;;;16.35;100.00;101432.28;4994279;28;20932;-45
2023/06/17 04:39:48;;;;;;;31.13;28.83;;;;;;;16.40;100.00;101435.97;4993735;28;20493;-47
2023/06/17 04:42:17;;;;;;;29.77;27.67;;;;;;;16.47;100.00;101435.94;4993912;28;20994;-48
2023/06/17 04:44:48;;;;;;;31.17;28.80;;;;;;;16.47;100.00;101438.63;4994075;28;20434;-44
2023/06/17 04:47:19;;;;;;;44.13;29.33;;;;;;;16.48;100.00;101437.59;4994201;28;20434;-46
2023/06/17 04:49:47;;;;;;;83.97;30.27;;;;;;;16.52;100.00;101445.00;4993373;28;20490;-45
2023/06/17 04:52:19;;;;;;;48.90;30.23;;;;;;;16.62;100.00;101441.88;4993992;28;20434;-45
2023/06/17 04:54:47;;;;;;;84.47;30.43;;;;;;;16.73;100.00;101446.53;4992358;28;20496;-44
2023/06/17 04:57:16;;;;;;;27.80;24.00;;;;;;;16.86;100.00;101442.91;4994007;28;20484;-46
2023/06/17 04:59:43;;;;;;;43.33;24.80;;;;;;;17.03;100.00;101444.00;4993337;28;20470;-43
2023/06/17 05:02:11;;;;;;;51.90;28.13;;;;;;;17.13;100.00;101438.94;4993424;28;20509;-44
2023/06/17 05:04:40;;;;;;;26.37;24.37;;;;;;;17.25;100.00;101439.00;4993975;28;20492;-45
2023/06/17 05:07:08;;;;;;;31.37;27.60;;;;;;;17.29;100.00;101438.34;4993937;28;20820;-45
2023/06/17 05:09:36;;;;;;;39.00;28.93;;;;;;;17.44;100.00;101443.38;4992712;28;20470;-47
2023/06/17 05:12:04;;;;;;;28.43;25.53;;;;;;;17.52;100.00;101443.06;4993453;28;20469;-43
2023/06/17 05:14:32;;;;;;;29.17;26.37;;;;;;;17.66;100.00;101437.31;4993448;28;20438;-45
2023/06/17 05:17:00;;;;;;;28.00;25.70;;;;;;;17.79;100.00;101436.34;4993706;28;20462;-42
2023/06/17 05:19:27;;;;;;;36.27;27.47;;;;;;;17.93;100.00;101445.91;4992964;28;20469;-45
2023/06/17 05:21:56;;;;;;;27.87;26.07;;;;;;;18.10;100.00;101437.97;4992767;28;20473;-42
2023/06/17 05:24:24;;;;;;;27.47;25.17;;;;;;;18.12;100.00;101431.31;4993642;28;20461;-45
2023/06/17 05:26:53;;;;;;;24.40;22.80;;;;;;;18.36;100.00;101434.91;4993591;28;20430;-43
2023/06/17 05:29:20;;;;;;;22.37;20.87;;;;;;;18.52;100.00;101441.53;4999402;28;20465;-42
2023/06/17 05:31:48;;;;;;;22.67;21.10;;;;;;;18.68;100.00;101436.31;5000855;28;20418;-42
2023/06/17 05:34:16;;;;;;;24.70;22.33;;;;;;;18.71;100.00;101443.13;4998736;28;20962;-42
2023/06/17 05:36:44;;;;;;;24.77;22.37;;;;;;;18.76;100.00;101435.94;5001091;28;20441;-43
2023/06/17 05:39:13;;;;;;;23.33;21.50;;;;;;;18.93;100.00;101441.50;5000958;28;20473;-45
2023/06/17 05:41:41;;;;;;;25.53;23.47;;;;;;;19.00;100.00;101446.75;5000977;28;21114;-45
2023/06/17 05:44:09;;;;;;;22.87;21.47;;;;;;;19.20;100.00;101447.25;5001773;28;20426;-43
2023/06/17 05:46:38;;;;;;;22.10;20.60;;;;;;;19.44;100.00;101439.97;5000473;28;20417;-47
2023/06/17 05:49:06;;;;;;;26.60;23.33;;;;;;;19.58;100.00;101439.47;4999591;28;20496;-44
2023/06/17 05:51:34;;;;;;;24.20;22.13;;;;;;;19.70;100.00;101428.59;5001520;28;21091;-42
2023/06/17 05:54:02;;;;;;;42.13;23.73;;;;;;;20.01;100.00;101436.25;5001956;28;20453;-45
2023/06/17 05:56:31;;;;;;;23.53;21.43;;;;;;;20.15;100.00;101436.78;4999541;28;20441;-42
2023/06/17 05:58:59;;;;;;;22.07;20.17;;;;;;;20.36;100.00;101428.81;4998503;28;20473;-44
2023/06/17 06:01:26;;;;;;;21.50;20.00;;;;;;;20.52;100.00;101427.16;4998815;28;20481;-43
2023/06/17 06:03:54;;;;;;;21.80;20.30;;;;;;;20.68;100.00;101430.97;4999170;28;20432;-42
2023/06/17 06:06:22;;;;;;;22.47;20.97;;;;;;;20.89;100.00;101435.63;4999778;28;20461;-42
2023/06/17 06:08:50;;;;;;;22.60;21.20;;;;;;;20.84;100.00;101433.69;4998908;28;20500;-43
2023/06/17 06:11:18;;;;;;;21.03;19.27;;;;;;;20.87;100.00;101440.50;4999344;28;20464;-42
2023/06/17 06:13:47;;;;;;;21.63;20.43;;;;;;;20.88;100.00;101442.13;4980565;28;20975;-42
2023/06/17 06:16:15;;;;;;;20.80;19.60;;;;;;;21.06;100.00;101436.44;4979442;28;20897;-47
2023/06/17 06:18:43;;;;;;;21.90;20.50;;;;;;;21.29;100.00;101449.03;4978784;28;20471;-48
2023/06/17 06:21:10;;;;;;;22.10;20.60;;;;;;;21.44;100.00;101441.09;4980359;28;20458;-44
2023/06/17 06:23:38;;;;;;;22.70;21.17;;;;;;;21.60;100.00;101444.78;4979968;28;20465;-42
2023/06/17 06:26:06;;;;;;;21.63;20.40;;;;;;;21.88;100.00;101444.63;4980054;28;20466;-44
2023/06/17 06:28:33;;;;;;;20.90;19.50;;;;;;;22.08;100.00;101441.31;4979477;28;20470;-46
2023/06/17 06:31:03;;;;;;;19.43;18.33;;;;;;;22.30;100.00;101442.94;4979051;28;20785;-42
2023/06/17 06:33:31;;;;;;;20.53;19.20;;;;;;;22.53;100.00;101447.19;4980330;28;20512;-44
2023/06/17 06:35:58;;;;;;;18.03;16.93;;;;;;;22.81;100.00;101446.94;4997761;28;20457;-43
2023/06/17 06:38:27;;;;;;;16.70;15.73;;;;;;;23.02;100.00;101448.72;4998600;28;20542;-42
2023/06/17 06:40:54;;;;;;;19.90;18.70;;;;;;;23.05;100.00;101447.38;4997924;28;20492;-43
2023/06/17 06:43:23;;;;;;;18.87;17.67;;;;;;;22.94;100.00;101451.91;4998824;28;20508;-50
2023/06/17 06:45:51;;;;;;;17.33;16.27;;;;;;;23.11;100.00;101454.50;4998275;28;20449;-47
2023/06/17 06:48:20;;;;;;;16.70;15.60;;;;;;;23.13;100.00;101450.41;4996812;28;21049;-44
2023/06/17 06:50:48;;;;;;;15.47;14.37;;;;;;;23.55;100.00;101458.56;4997509;28;20433;-44
2023/06/17 06:53:16;;;;;;;17.07;15.73;;;;;;;23.90;100.00;101452.44;4997793;28;20445;-46
2023/06/17 06:55:44;;;;;;;17.00;15.80;;;;;;;24.46;100.00;101450.66;4997048;28;20429;-48
2023/06/17 06:58:12;;;;;;;14.00;13.10;;;;;;;25.13;100.00;101455.88;4996207;28;20461;-46
2023/06/17 07:00:40;;;;;;;15.27;14.10;;;;;;;25.69;100.00;101450.25;4996022;28;20436;-43
2023/06/17 07:03:07;;;;;;;13.00;12.10;;;;;;;26.13;100.00;101459.34;4997244;28;20532;-43
2023/06/17 07:05:37;;;;;;;13.30;12.27;;;;;;;26.72;100.00;101459.19;4997211;28;20513;-46
2023/06/17 07:08:04;;;;;;;12.10;11.30;;;;;;;27.41;98.97;101458.00;4995647;28;20817;-48
2023/06/17 07:10:33;;;;;;;13.03;12.23;;;;;;;27.54;93.13;101456.50;4995894;28;20927;-50
2023/06/17 07:13:01;;;;;;;13.07;12.10;;;;;;;28.42;93.08;101456.66;4996802;28;20461;-44
2023/06/17 07:15:28;;;;;;;12.90;12.10;;;;;;;29.02;89.07;101452.13;4997533;28;20445;-46
2023/06/17 07:17:56;;;;;;;11.77;10.90;;;;;;;29.42;84.88;101458.81;4996276;28;20453;-46
2023/06/17 07:20:24;;;;;;;15.17;13.83;;;;;;;29.86;70.19;101453.50;4998510;28;20550;-48
2023/06/17 07:22:53;;;;;;;12.97;12.07;;;;;;;30.49;75.93;101455.38;4999999;28;20269;-43
2023/06/17 07:25:21;;;;;;;13.53;12.73;;;;;;;31.01;64.21;101460.09;4999937;28;20206;-45
2023/06/17 07:27:50;;;;;;;12.53;11.73;;;;;;;31.18;69.75;101453.88;4990557;28;20338;-46
2023/06/17 07:30:18;;;;;;;14.73;13.77;;;;;;;31.02;57.57;101458.16;4973996;28;20237;-47
2023/06/17 07:32:47;;;;;;;13.63;12.70;;;;;;;31.08;57.05;101460.47;4976612;28;20192;-47
2023/06/17 07:35:15;;;;;;;14.00;12.90;;;;;;;31.24;63.71;101466.38;4959730;29;20200;-50
2023/06/17 07:37:42;;;;;;;12.00;11.20;;;;;;;31.29;58.78;101460.72;4964013;28;20195;-46
2023/06/17 07:40:13;;;;;;;11.32;10.63;;;;;;;31.54;55.50;101462.00;4977856;28;20242;-46
2023/06/17 07:42:44;;;;;;;10.93;10.23;;;;;;;31.52;58.15;101467.00;4980394;28;20601;-46
2023/06/17 07:45:14;;;;;;;12.65;11.55;;;;;;;31.56;55.28;101463.28;4982018;28;20635;-50
2023/06/17 07:47:41;;;;;;;11.83;11.13;;;;;;;31.60;61.50;101461.50;4999524;28;20229;-45
2023/06/17 07:50:10;;;;;;;12.30;11.50;;;;;;;31.67;57.42;101461.03;4995284;28;20230;-44
2023/06/17 07:52:38;;;;;;;11.98;11.18;;;;;;;31.82;59.63;101459.78;4973360;28;20708;-43
2023/06/17 07:55:08;;;;;;;11.07;10.27;;;;;;;32.00;61.04;101455.91;5000044;28;20202;-46
2023/06/17 07:57:37;;;;;;;12.55;11.48;;;;;;;31.62;55.33;101462.00;5000093;28;20202;-44
2023/06/17 08:00:09;;;;;;;10.98;10.27;;;;;;;31.70;55.32;101452.94;4999154;28;20586;-48
2023/06/17 08:02:36;;;;;;;11.67;10.87;;;;;;;31.50;54.79;101452.72;4974933;28;20230;-44
2023/06/17 08:05:05;;;;;;;10.65;9.85;;;;;;;31.25;55.66;101452.28;4999876;28;20218;-44
2023/06/17 08:07:33;;;;;;;9.52;8.93;;;;;;;30.98;56.64;101459.91;4999810;28;20210;-45
2023/06/17 08:10:01;;;;;;;12.37;11.57;;;;;;;30.63;58.43;101458.88;4999301;28;20194;-45
2023/06/17 08:12:29;;;;;;;10.50;9.80;;;;;;;30.47;58.58;101447.41;4999942;28;20191;-46
2023/06/17 08:14:58;;;;;;;13.40;12.30;;;;;;;30.02;58.14;101456.69;4999926;28;20229;-44
2023/06/17 08:17:26;;;;;;;11.07;10.27;;;;;;;29.85;58.87;101448.28;4999670;28;20230;-47
2023/06/17 08:19:53;;;;;;;11.33;10.50;;;;;;;29.52;58.80;101448.41;4998898;28;20246;-44
2023/06/17 08:22:21;;;;;;;13.73;12.47;;;;;;;29.03;59.22;101449.03;4999654;28;20226;-48
2023/06/17 08:24:49;;;;;;;10.93;10.13;;;;;;;28.80;59.58;101444.53;4974138;28;20253;-48
2023/06/17 08:27:17;;;;;;;12.40;11.43;;;;;;;27.98;59.62;101451.53;5000489;28;20464;-51
2023/06/17 08:29:45;;;;;;;13.30;12.20;;;;;;;27.64;62.95;101451.72;4970805;28;20484;-44
2023/06/17 08:32:14;;;;;;;12.93;12.03;;;;;;;27.62;62.61;101444.91;4984358;28;20480;-46
2023/06/17 08:34:42;;;;;;;10.83;10.03;;;;;;;27.51;65.78;101449.66;4998397;28;20468;-45
2023/06/17 08:37:10;;;;;;;10.83;9.93;;;;;;;27.88;66.08;101448.94;4995138;28;20502;-45
2023/06/17 08:39:39;;;;;;;10.57;9.87;;;;;;;28.03;65.91;101446.81;4999902;28;20457;-43
2023/06/17 08:42:09;;;;;;;12.87;11.87;;;;;;;27.96;62.28;101448.25;4999832;28;20482;-48
2023/06/17 08:44:42;;;;;;;11.17;10.40;;;;;;;28.07;62.48;101448.97;4999199;28;20531;-48
2023/06/17 08:47:14;;;;;;;12.73;11.50;;;;;;;28.17;61.57;101446.91;4996063;28;20443;-47
2023/06/17 08:49:44;;;;;;;10.97;10.10;;;;;;;27.57;60.43;101450.44;4993705;28;20524;-48
2023/06/17 08:52:13;;;;;;;10.10;9.30;;;;;;;27.54;60.30;101456.50;4993373;28;20437;-49
2023/06/17 08:54:42;;;;;;;9.77;9.17;;;;;;;27.38;61.26;101451.19;4993157;28;20469;-47
2023/06/17 08:57:12;;;;;;;11.07;10.17;;;;;;;27.31;60.77;101449.88;4973751;28;20450;-44
2023/06/17 08:59:41;;;;;;;10.90;10.10;;;;;;;27.00;60.73;101448.59;4992232;28;20465;-45
2023/06/17 09:02:10;;;;;;;10.60;9.57;;;;;;;26.56;60.25;101448.66;4993288;28;20430;-46
2023/06/17 09:04:38;;;;;;;9.63;8.93;;;;;;;26.34;62.43;101447.16;4993100;28;20462;-45
2023/06/17 09:07:09;;;;;;;8.30;7.70;;;;;;;26.09;58.39;101438.28;4992936;28;20434;-48
2023/06/17 09:09:38;;;;;;;7.90;7.40;;;;;;;26.44;58.29;101440.00;4993001;28;20457;-48
2023/06/17 09:12:08;;;;;;;8.80;8.20;;;;;;;26.46;56.36;101433.16;4993176;28;20480;-47
2023/06/17 09:14:37;;;;;;;8.20;7.80;;;;;;;26.44;57.70;101435.34;4992870;28;20469;-48
2023/06/17 09:17:05;;;;;;;8.07;7.57;;;;;;;26.46;59.20;101435.06;4992719;28;20468;-49
2023/06/17 09:19:33;;;;;;;8.50;8.00;;;;;;;26.55;60.76;101430.63;4992129;28;20477;-44
2023/06/17 09:22:07;;;;;;;10.37;9.57;;;;;;;26.47;61.22;101429.31;4990500;28;20441;-45
2023/06/17 09:24:34;;;;;;;11.70;10.67;;;;;;;26.11;63.85;101430.63;4992337;28;20536;-45
2023/06/17 09:27:03;;;;;;;11.33;10.33;;;;;;;25.78;66.95;101434.91;4992828;28;20461;-45
2023/06/17 09:29:31;;;;;;;11.60;10.70;;;;;;;25.57;68.07;101436.91;4987707;28;20516;-44
2023/06/17 09:32:03;;;;;;;10.93;10.13;;;;;;;25.97;65.03;101432.34;5001399;28;20491;-46
2023/06/17 09:34:31;;;;;;;11.27;10.47;;;;;;;26.00;65.30;101424.41;4994117;28;20489;-45
2023/06/17 09:37:00;;;;;;;11.60;10.50;;;;;;;26.27;64.62;101438.47;4992769;28;20824;-46
2023/06/17 09:39:31;;;;;;;11.07;10.20;;;;;;;26.56;62.77;101422.13;4992847;28;20490;-46
2023/06/17 09:42:08;;;;;;;11.20;10.20;;;;;;;26.55;63.87;101425.97;4991578;28;20778;-44
2023/06/17 09:44:37;;;;;;;13.30;9.87;;;;;;;26.46;66.05;101432.34;4991916;28;20464;-45
2023/06/17 09:47:07;;;;;;;11.93;11.03;;;;;;;26.44;66.04;101421.66;4992789;28;20521;-46
2023/06/17 09:49:36;;;;;;;10.60;9.77;;;;;;;26.52;64.62;101432.03;4992279;28;20540;-45
2023/06/17 09:52:08;;;;;;;11.80;10.70;;;;;;;27.01;64.64;101426.38;4992168;28;20440;-47
2023/06/17 09:54:40;;;;;;;9.60;8.70;;;;;;;26.66;61.42;101434.91;4976020;28;20481;-45
2023/06/17 09:57:13;;;;;;;11.20;10.30;;;;;;;26.70;61.73;101427.75;4973038;28;20439;-45
2023/06/17 09:59:43;;;;;;;10.13;9.03;;;;;;;27.09;62.77;101425.75;4972591;28;20960;-48
2023/06/17 10:02:11;;;;;;;11.27;10.47;;;;;;;27.29;60.82;101431.00;4972540;28;20437;-47
2023/06/17 10:04:39;;;;;;;9.33;8.60;;;;;;;27.77;60.27;101428.25;4946638;28;20988;-47
2023/06/17 10:07:08;;;;;;;11.43;10.60;;;;;;;27.87;60.20;101420.69;4973325;28;20802;-50
2023/06/17 10:09:37;;;;;;;10.17;9.37;;;;;;;28.11;60.40;101425.31;4972369;28;20549;-44
2023/06/17 10:12:07;;;;;;;10.17;9.37;;;;;;;28.24;58.69;101422.66;4972635;28;20528;-50
2023/06/17 10:14:36;;;;;;;9.33;8.67;;;;;;;27.96;57.32;101424.41;4971839;28;20976;-45
2023/06/17 10:17:09;;;;;;;10.70;9.90;;;;;;;27.49;57.59;101427.25;4973174;28;20590;-46
2023/06/17 10:19:39;;;;;;;10.87;10.07;;;;;;;27.59;59.30;101418.91;4946602;28;20837;-48
2023/06/17 10:22:13;;;;;;;11.57;10.20;;;;;;;27.77;59.00;101422.78;4972587;28;20434;-47
2023/06/17 10:24:42;;;;;;;10.27;9.33;;;;;;;27.78;58.77;101421.66;4972421;28;20525;-45
2023/06/17 10:27:10;;;;;;;10.10;9.10;;;;;;;27.86;57.29;101416.34;4972537;28;20850;-45
2023/06/17 10:29:42;;;;;;;10.57;9.77;;;;;;;28.07;56.77;101413.34;4949851;28;20474;-46
2023/06/17 10:32:18;;;;;;;11.17;10.37;;;;;;;27.98;53.54;101418.66;4961682;28;21160;-47
2023/06/17 10:35:09;;;;;;;9.47;8.70;;;;;;;28.47;53.02;101410.75;4946218;28;20509;-44
2023/06/17 10:37:41;;;;;;;8.63;8.03;;;;;;;28.99;52.07;101408.78;4971944;28;20438;-47
2023/06/17 10:40:25;;;;;;;8.27;7.67;;;;;;;27.95;51.44;101419.25;4971956;28;20852;-45
2023/06/17 10:42:55;;;;;;;9.37;8.77;;;;;;;28.06;54.80;101408.94;4972127;28;20430;-46
2023/06/17 10:45:23;;;;;;;9.57;8.87;;;;;;;28.42;53.11;101407.28;4972259;28;20565;-45
2023/06/17 10:47:51;;;;;;;7.70;7.20;;;;;;;28.46;53.32;101406.38;4972645;28;20490;-45
2023/06/17 10:50:22;;;;;;;9.50;8.90;;;;;;;28.48;53.40;101409.66;4972778;28;20443;-45
2023/06/17 10:52:55;;;;;;;8.17;7.57;;;;;;;28.36;50.90;101400.25;4972656;28;20434;-44
2023/06/17 10:55:24;;;;;;;7.30;6.83;;;;;;;28.91;50.52;101402.03;4976055;28;20516;-46
2023/06/17 10:57:52;;;;;;;8.97;8.27;;;;;;;28.50;48.93;101407.41;4976375;28;20466;-48
2023/06/17 11:00:21;;;;;;;7.67;7.17;;;;;;;28.79;49.81;101403.66;4976249;28;20865;-45
2023/06/17 11:02:49;;;;;;;7.93;7.40;;;;;;;29.12;49.61;101399.75;4975262;28;20434;-45
2023/06/17 11:05:18;;;;;;;6.17;5.87;;;;;;;28.96;45.16;101410.22;4975975;28;20992;-45
2023/06/17 11:07:45;;;;;;;7.63;6.93;;;;;;;28.72;46.53;101398.56;4976291;28;20454;-44
2023/06/17 11:10:13;;;;;;;6.80;6.40;;;;;;;28.38;47.41;101403.50;4976371;28;20529;-44
2023/06/17 11:12:46;;;;;;;7.40;6.90;;;;;;;28.52;48.17;101402.44;4976364;28;20521;-46
2023/06/17 11:15:16;;;;;;;7.17;6.77;;;;;;;28.77;48.69;101403.13;4975460;28;20505;-47